sensor_id;sensor_type;location;lat;lon;timestamp;temperature;humidity
59067;DHT22;44854;50.838;4.438;2023-07-22T04:02:21;15.80;99.90
59067;DHT22;44854;50.838;4.438;2023-07-22T04:04:48;15.80;99.90
59067;DHT22;44854;50.838;4.438;2023-07-22T04:07:13;15.70;99.90
59067;DHT22;44854;50.838;4.438;2023-07-22T04:09:39;15.80;99.90
59067;DHT22;44854;50.838;4.438;2023-07-22T04:12:06;15.90;99.90
59067;DHT22;44854;50.838;4.438;2023-07-22T04:14:32;15.90;99.90
59067;DHT22;44854;50.838;4.438;2023-07-22T04:16:57;15.90;99.90
59067;DHT22;44854;50.838;4.438;2023-07-22T04:19:23;15.90;99.90
59067;DHT22;44854;50.838;4.438;2023-07-22T04:21:48;15.90;99.90
59067;DHT22;44854;50.838;4.438;2023-07-22T04:24:14;15.90;99.90
59067;DHT22;44854;50.838;4.438;2023-07-22T04:26:41;15.90;99.90
59067;DHT22;44854;50.838;4.438;2023-07-22T04:29:06;16.00;99.90
59067;DHT22;44854;50.838;4.438;2023-07-22T04:31:32;15.90;99.90
59067;DHT22;44854;50.838;4.438;2023-07-22T04:33:58;16.00;99.90
59067;DHT22;44854;50.838;4.438;2023-07-22T04:36:23;16.00;99.90
59067;DHT22;44854;50.838;4.438;2023-07-22T04:38:49;16.00;99.90
59067;DHT22;44854;50.838;4.438;2023-07-22T04:41:15;16.00;99.90
59067;DHT22;44854;50.838;4.438;2023-07-22T04:43:40;16.00;99.90
59067;DHT22;44854;50.838;4.438;2023-07-22T04:46:06;16.00;99.90
59067;DHT22;44854;50.838;4.438;2023-07-22T04:48:32;16.10;99.90
59067;DHT22;44854;50.838;4.438;2023-07-22T04:50:57;16.10;99.90
59067;DHT22;44854;50.838;4.438;2023-07-22T04:53:23;16.10;99.90
59067;DHT22;44854;50.838;4.438;2023-07-22T04:55:49;16.20;99.90
59067;DHT22;44854;50.838;4.438;2023-07-22T04:58:14;16.10;99.90
59067;DHT22;44854;50.838;4.438;2023-07-22T05:00:40;16.10;99.90
59067;DHT22;44854;50.838;4.438;2023-07-22T05:03:07;16.20;99.90
59067;DHT22;44854;50.838;4.438;2023-07-22T05:05:33;16.10;99.90
59067;DHT22;44854;50.838;4.438;2023-07-22T05:07:58;16.20;99.90
59067;DHT22;44854;50.838;4.438;2023-07-22T05:10:24;16.20;99.90
59067;DHT22;44854;50.838;4.438;2023-07-22T05:12:49;16.20;99.90
59067;DHT22;44854;50.838;4.438;2023-07-22T05:15:15;16.20;99.90
59067;DHT22;44854;50.838;4.438;2023-07-22T05:17:41;16.20;99.90
59067;DHT22;44854;50.838;4.438;2023-07-22T05:20:06;16.20;99.90
59067;DHT22;44854;50.838;4.438;2023-07-22T05:22:35;16.20;99.90
59067;DHT22;44854;50.838;4.438;2023-07-22T05:25:01;16.10;99.90
59067;DHT22;44854;50.838;4.438;2023-07-22T05:27:26;16.20;99.90
59067;DHT22;44854;50.838;4.438;2023-07-22T05:29:52;16.20;99.90
59067;DHT22;44854;50.838;4.438;2023-07-22T05:32:17;16.30;99.90
59067;DHT22;44854;50.838;4.438;2023-07-22T05:34:43;16.30;99.90
59067;DHT22;44854;50.838;4.438;2023-07-22T05:37:08;16.40;99.90
59067;DHT22;44854;50.838;4.438;2023-07-22T05:39:34;16.40;99.90
59067;DHT22;44854;50.838;4.438;2023-07-22T05:41:59;16.30;99.90
59067;DHT22;44854;50.838;4.438;2023-07-22T05:44:25;16.50;99.90
59067;DHT22;44854;50.838;4.438;2023-07-22T05:46:51;16.40;99.90
59067;DHT22;44854;50.838;4.438;2023-07-22T05:49:16;16.40;99.90
59067;DHT22;44854;50.838;4.438;2023-07-22T05:51:42;16.50;99.90
59067;DHT22;44854;50.838;4.438;2023-07-22T05:54:07;16.50;99.90
59067;DHT22;44854;50.838;4.438;2023-07-22T05:56:33;16.50;99.90
59067;DHT22;44854;50.838;4.438;2023-07-22T05:58:58;16.50;99.90
59067;DHT22;44854;50.838;4.438;2023-07-22T06:01:24;16.60;99.90
59067;DHT22;44854;50.838;4.438;2023-07-22T06:03:50;16.80;99.90
59067;DHT22;44854;50.838;4.438;2023-07-22T06:06:16;17.00;99.90
59067;DHT22;44854;50.838;4.438;2023-07-22T06:08:41;17.10;99.90
59067;DHT22;44854;50.838;4.438;2023-07-22T06:11:07;17.20;99.90
59067;DHT22;44854;50.838;4.438;2023-07-22T06:13:32;17.30;99.90
59067;DHT22;44854;50.838;4.438;2023-07-22T06:15:58;17.40;99.90
59067;DHT22;44854;50.838;4.438;2023-07-22T06:18:23;17.40;99.90
59067;DHT22;44854;50.838;4.438;2023-07-22T06:20:49;17.50;99.90
59067;DHT22;44854;50.838;4.438;2023-07-22T06:23:14;17.60;99.90
59067;DHT22;44854;50.838;4.438;2023-07-22T06:25:40;17.50;99.90
59067;DHT22;44854;50.838;4.438;2023-07-22T06:28:05;17.50;99.90
59067;DHT22;44854;50.838;4.438;2023-07-22T06:30:31;17.40;99.90
59067;DHT22;44854;50.838;4.438;2023-07-22T06:32:57;17.50;99.90
59067;DHT22;44854;50.838;4.438;2023-07-22T06:35:23;17.50;99.90
59067;DHT22;44854;50.838;4.438;2023-07-22T06:37:48;17.10;99.90
59067;DHT22;44854;50.838;4.438;2023-07-22T06:40:14;17.30;99.90
59067;DHT22;44854;50.838;4.438;2023-07-22T06:42:39;17.40;99.90
59067;DHT22;44854;50.838;4.438;2023-07-22T06:45:05;17.20;99.90
59067;DHT22;44854;50.838;4.438;2023-07-22T06:47:32;17.30;99.90
59067;DHT22;44854;50.838;4.438;2023-07-22T06:49:57;17.40;99.90
59067;DHT22;44854;50.838;4.438;2023-07-22T06:52:23;17.40;99.90
59067;DHT22;44854;50.838;4.438;2023-07-22T06:54:49;17.40;99.90
59067;DHT22;44854;50.838;4.438;2023-07-22T06:57:15;17.20;99.90
59067;DHT22;44854;50.838;4.438;2023-07-22T06:59:41;17.30;99.90
59067;DHT22;44854;50.838;4.438;2023-07-22T07:02:07;17.30;99.90
59067;DHT22;44854;50.838;4.438;2023-07-22T07:04:32;17.50;99.90
59067;DHT22;44854;50.838;4.438;2023-07-22T07:06:58;17.60;99.90
59067;DHT22;44854;50.838;4.438;2023-07-22T07:09:24;17.40;99.90
59067;DHT22;44854;50.838;4.438;2023-07-22T07:11:50;17.50;99.90
59067;DHT22;44854;50.838;4.438;2023-07-22T07:14:16;17.40;99.90
59067;DHT22;44854;50.838;4.438;2023-07-22T07:16:41;17.40;99.90
59067;DHT22;44854;50.838;4.438;2023-07-22T07:19:07;17.80;99.90
59067;DHT22;44854;50.838;4.438;2023-07-22T07:21:32;17.90;99.90
59067;DHT22;44854;50.838;4.438;2023-07-22T07:23:58;17.80;99.90
59067;DHT22;44854;50.838;4.438;2023-07-22T07:26:24;17.90;99.90
59067;DHT22;44854;50.838;4.438;2023-07-22T07:28:49;17.80;99.90
59067;DHT22;44854;50.838;4.438;2023-07-22T07:31:18;18.20;99.90
59067;DHT22;44854;50.838;4.438;2023-07-22T07:33:43;18.40;99.90
59067;DHT22;44854;50.838;4.438;2023-07-22T07:36:09;18.60;99.90
59067;DHT22;44854;50.838;4.438;2023-07-22T07:38:34;18.70;99.90
59067;DHT22;44854;50.838;4.438;2023-07-22T07:41:02;18.90;99.90
59067;DHT22;44854;50.838;4.438;2023-07-22T07:43:28;18.80;99.90
59067;DHT22;44854;50.838;4.438;2023-07-22T07:46:27;18.70;99.90
59067;DHT22;44854;50.838;4.438;2023-07-22T07:48:47;18.50;99.90
59067;DHT22;44854;50.838;4.438;2023-07-22T07:51:13;18.50;99.90
59067;DHT22;44854;50.838;4.438;2023-07-22T07:53:40;18.60;99.90
59067;DHT22;44854;50.838;4.438;2023-07-22T07:56:06;18.70;99.90
59067;DHT22;44854;50.838;4.438;2023-07-22T07:58:31;18.80;99.90
59067;DHT22;44854;50.838;4.438;2023-07-22T08:00:57;18.70;99.90
59067;DHT22;44854;50.838;4.438;2023-07-22T08:03:23;18.70;99.90
59067;DHT22;44854;50.838;4.438;2023-07-22T08:05:48;18.50;99.90
59067;DHT22;44854;50.838;4.438;2023-07-22T08:08:15;18.60;99.90
59067;DHT22;44854;50.838;4.438;2023-07-22T08:10:40;18.30;99.90
59067;DHT22;44854;50.838;4.438;2023-07-22T08:13:06;18.40;99.90
59067;DHT22;44854;50.838;4.438;2023-07-22T08:15:32;18.70;99.90
59067;DHT22;44854;50.838;4.438;2023-07-22T08:17:57;19.00;99.90
59067;DHT22;44854;50.838;4.438;2023-07-22T08:20:23;19.20;99.90
59067;DHT22;44854;50.838;4.438;2023-07-22T08:22:49;19.50;99.90
59067;DHT22;44854;50.838;4.438;2023-07-22T08:25:14;19.70;99.90
59067;DHT22;44854;50.838;4.438;2023-07-22T08:27:40;19.60;99.90
59067;DHT22;44854;50.838;4.438;2023-07-22T08:30:05;19.60;99.90
59067;DHT22;44854;50.838;4.438;2023-07-22T08:32:31;19.30;99.90
59067;DHT22;44854;50.838;4.438;2023-07-22T08:34:57;19.20;99.90
59067;DHT22;44854;50.838;4.438;2023-07-22T08:37:22;19.00;99.90
59067;DHT22;44854;50.838;4.438;2023-07-22T08:39:48;19.20;99.90
59067;DHT22;44854;50.838;4.438;2023-07-22T08:42:13;19.30;99.90
59067;DHT22;44854;50.838;4.438;2023-07-22T08:44:41;19.50;99.90
59067;DHT22;44854;50.838;4.438;2023-07-22T08:47:08;19.50;99.90
59067;DHT22;44854;50.838;4.438;2023-07-22T08:49:35;19.90;99.90
59067;DHT22;44854;50.838;4.438;2023-07-22T08:52:01;19.90;99.90
59067;DHT22;44854;50.838;4.438;2023-07-22T08:54:27;19.90;99.90
59067;DHT22;44854;50.838;4.438;2023-07-22T08:56:53;19.90;99.90
59067;DHT22;44854;50.838;4.438;2023-07-22T08:59:18;19.90;99.90
59067;DHT22;44854;50.838;4.438;2023-07-22T09:01:44;19.60;99.90
59067;DHT22;44854;50.838;4.438;2023-07-22T09:04:11;19.70;99.90
59067;DHT22;44854;50.838;4.438;2023-07-22T09:06:36;19.70;99.90
59067;DHT22;44854;50.838;4.438;2023-07-22T09:09:02;20.00;99.90
59067;DHT22;44854;50.838;4.438;2023-07-22T09:11:33;19.90;99.90
59067;DHT22;44854;50.838;4.438;2023-07-22T09:13:59;19.90;99.90
59067;DHT22;44854;50.838;4.438;2023-07-22T09:16:25;20.00;99.90
59067;DHT22;44854;50.838;4.438;2023-07-22T09:18:54;20.00;99.90
59067;DHT22;44854;50.838;4.438;2023-07-22T09:21:19;20.20;99.90
59067;DHT22;44854;50.838;4.438;2023-07-22T09:23:45;20.30;99.90
59067;DHT22;44854;50.838;4.438;2023-07-22T09:26:14;20.30;99.90
59067;DHT22;44854;50.838;4.438;2023-07-22T09:28:50;20.40;99.90
59067;DHT22;44854;50.838;4.438;2023-07-22T09:31:16;20.30;99.90
59067;DHT22;44854;50.838;4.438;2023-07-22T09:33:42;20.40;99.90
59067;DHT22;44854;50.838;4.438;2023-07-22T09:36:09;20.20;99.90
59067;DHT22;44854;50.838;4.438;2023-07-22T09:38:35;20.20;99.90
59067;DHT22;44854;50.838;4.438;2023-07-22T09:41:00;20.20;99.90
59067;DHT22;44854;50.838;4.438;2023-07-22T09:43:26;20.30;99.90
59067;DHT22;44854;50.838;4.438;2023-07-22T09:45:51;20.40;99.90
59067;DHT22;44854;50.838;4.438;2023-07-22T09:48:17;20.50;99.90
59067;DHT22;44854;50.838;4.438;2023-07-22T09:50:42;20.50;99.90
59067;DHT22;44854;50.838;4.438;2023-07-22T09:53:08;20.40;99.90
59067;DHT22;44854;50.838;4.438;2023-07-22T09:55:33;20.60;99.90
59067;DHT22;44854;50.838;4.438;2023-07-22T09:58:00;20.50;99.90
59067;DHT22;44854;50.838;4.438;2023-07-22T10:00:30;20.80;99.90
59067;DHT22;44854;50.838;4.438;2023-07-22T10:02:56;20.90;99.90
59067;DHT22;44854;50.838;4.438;2023-07-22T10:05:22;20.80;99.90
59067;DHT22;44854;50.838;4.438;2023-07-22T10:07:52;20.80;99.90
59067;DHT22;44854;50.838;4.438;2023-07-22T10:10:23;21.10;99.90
59067;DHT22;44854;50.838;4.438;2023-07-22T10:12:49;21.10;99.90
59067;DHT22;44854;50.838;4.438;2023-07-22T10:15:15;21.30;99.90
59067;DHT22;44854;50.838;4.438;2023-07-22T10:17:41;21.20;99.90
59067;DHT22;44854;50.838;4.438;2023-07-22T10:20:11;21.10;99.90
59067;DHT22;44854;50.838;4.438;2023-07-22T10:22:43;21.10;99.90
59067;DHT22;44854;50.838;4.438;2023-07-22T10:25:10;21.30;99.90
59067;DHT22;44854;50.838;4.438;2023-07-22T10:27:36;21.30;99.90
59067;DHT22;44854;50.838;4.438;2023-07-22T10:30:05;21.40;99.90
59067;DHT22;44854;50.838;4.438;2023-07-22T10:32:31;21.30;99.90
59067;DHT22;44854;50.838;4.438;2023-07-22T10:34:57;21.30;99.90
59067;DHT22;44854;50.838;4.438;2023-07-22T10:37:29;21.10;99.90
59067;DHT22;44854;50.838;4.438;2023-07-22T10:39:58;21.20;99.90
59067;DHT22;44854;50.838;4.438;2023-07-22T10:42:24;21.30;99.90
59067;DHT22;44854;50.838;4.438;2023-07-22T10:44:50;21.40;99.90
59067;DHT22;44854;50.838;4.438;2023-07-22T10:47:30;21.60;99.90
59067;DHT22;44854;50.838;4.438;2023-07-22T10:49:56;21.70;99.90
59067;DHT22;44854;50.838;4.438;2023-07-22T10:52:42;21.80;99.90
59067;DHT22;44854;50.838;4.438;2023-07-22T10:55:15;21.90;99.90
59067;DHT22;44854;50.838;4.438;2023-07-22T10:57:50;21.90;99.90
59067;DHT22;44854;50.838;4.438;2023-07-22T11:00:19;21.90;99.90
59067;DHT22;44854;50.838;4.438;2023-07-22T11:02:47;22.00;99.90
59067;DHT22;44854;50.838;4.438;2023-07-22T11:05:15;22.10;99.90
59067;DHT22;44854;50.838;4.438;2023-07-22T11:07:44;22.00;99.90
59067;DHT22;44854;50.838;4.438;2023-07-22T11:10:17;22.20;99.90
59067;DHT22;44854;50.838;4.438;2023-07-22T11:12:44;22.50;99.90
59067;DHT22;44854;50.838;4.438;2023-07-22T11:15:10;22.80;99.90
59067;DHT22;44854;50.838;4.438;2023-07-22T11:17:37;22.80;99.90
59067;DHT22;44854;50.838;4.438;2023-07-22T11:20:02;22.80;99.30
59067;DHT22;44854;50.838;4.438;2023-07-22T11:22:28;22.50;99.20
59067;DHT22;44854;50.838;4.438;2023-07-22T11:24:55;22.60;99.60
59067;DHT22;44854;50.838;4.438;2023-07-22T11:27:20;22.30;99.60
59067;DHT22;44854;50.838;4.438;2023-07-22T11:29:47;22.50;99.80
59067;DHT22;44854;50.838;4.438;2023-07-22T11:32:17;22.80;99.90
59067;DHT22;44854;50.838;4.438;2023-07-22T11:34:43;22.60;99.30
59067;DHT22;44854;50.838;4.438;2023-07-22T11:37:11;22.50;99.20
59067;DHT22;44854;50.838;4.438;2023-07-22T11:39:37;22.30;99.60
59067;DHT22;44854;50.838;4.438;2023-07-22T11:42:03;22.20;99.40
59067;DHT22;44854;50.838;4.438;2023-07-22T11:44:29;22.20;99.10
59067;DHT22;44854;50.838;4.438;2023-07-22T11:47:05;22.00;99.60
59067;DHT22;44854;50.838;4.438;2023-07-22T11:49:34;22.00;99.60
59067;DHT22;44854;50.838;4.438;2023-07-22T11:54:25;22.30;99.30
59067;DHT22;44854;50.838;4.438;2023-07-22T11:56:51;22.30;99.00
59067;DHT22;44854;50.838;4.438;2023-07-22T11:59:16;22.60;98.60
59067;DHT22;44854;50.838;4.438;2023-07-22T12:01:45;22.70;98.20
59067;DHT22;44854;50.838;4.438;2023-07-22T12:04:14;22.50;98.00
59067;DHT22;44854;50.838;4.438;2023-07-22T12:06:40;22.50;97.90
59067;DHT22;44854;50.838;4.438;2023-07-22T12:09:06;22.50;97.90
59067;DHT22;44854;50.838;4.438;2023-07-22T12:11:33;22.70;98.00
59067;DHT22;44854;50.838;4.438;2023-07-22T12:14:08;22.80;97.50
59067;DHT22;44854;50.838;4.438;2023-07-22T12:16:37;22.70;97.30
59067;DHT22;44854;50.838;4.438;2023-07-22T12:19:03;22.60;97.70
59067;DHT22;44854;50.838;4.438;2023-07-22T12:21:29;22.70;97.60
59067;DHT22;44854;50.838;4.438;2023-07-22T12:23:54;22.70;97.70
59067;DHT22;44854;50.838;4.438;2023-07-22T12:26:20;22.90;97.90
59067;DHT22;44854;50.838;4.438;2023-07-22T12:28:46;23.00;96.60
59067;DHT22;44854;50.838;4.438;2023-07-22T12:31:11;22.80;96.70
59067;DHT22;44854;50.838;4.438;2023-07-22T12:33:37;22.60;96.70
59067;DHT22;44854;50.838;4.438;2023-07-22T12:36:02;22.70;96.70
59067;DHT22;44854;50.838;4.438;2023-07-22T12:38:28;23.20;96.50
59067;DHT22;44854;50.838;4.438;2023-07-22T12:40:53;23.40;96.00
59067;DHT22;44854;50.838;4.438;2023-07-22T12:43:19;23.40;95.70
59067;DHT22;44854;50.838;4.438;2023-07-22T12:45:44;23.30;96.00
59067;DHT22;44854;50.838;4.438;2023-07-22T12:48:10;23.30;96.10
59067;DHT22;44854;50.838;4.438;2023-07-22T12:50:36;23.30;94.80
59067;DHT22;44854;50.838;4.438;2023-07-22T12:53:02;23.30;95.30
59067;DHT22;44854;50.838;4.438;2023-07-22T12:55:28;23.50;95.00
59067;DHT22;44854;50.838;4.438;2023-07-22T12:57:54;23.50;95.40
59067;DHT22;44854;50.838;4.438;2023-07-22T13:00:20;23.40;94.90
59067;DHT22;44854;50.838;4.438;2023-07-22T13:02:46;23.50;94.60
59067;DHT22;44854;50.838;4.438;2023-07-22T13:05:12;23.30;94.40
59067;DHT22;44854;50.838;4.438;2023-07-22T13:07:37;23.50;94.70
59067;DHT22;44854;50.838;4.438;2023-07-22T13:10:03;23.70;94.60
59067;DHT22;44854;50.838;4.438;2023-07-22T13:12:32;23.50;94.20
59067;DHT22;44854;50.838;4.438;2023-07-22T13:14:57;23.50;94.80
59067;DHT22;44854;50.838;4.438;2023-07-22T13:17:23;23.60;95.60
59067;DHT22;44854;50.838;4.438;2023-07-22T13:19:48;23.60;94.60
59067;DHT22;44854;50.838;4.438;2023-07-22T13:22:14;23.40;94.50
59067;DHT22;44854;50.838;4.438;2023-07-22T13:24:39;23.30;95.10
59067;DHT22;44854;50.838;4.438;2023-07-22T13:27:06;23.30;94.80
59067;DHT22;44854;50.838;4.438;2023-07-22T13:29:31;23.30;95.50
59067;DHT22;44854;50.838;4.438;2023-07-22T13:31:57;23.20;94.90
59067;DHT22;44854;50.838;4.438;2023-07-22T13:34:22;23.10;95.30
59067;DHT22;44854;50.838;4.438;2023-07-22T13:36:48;23.30;94.90
59067;DHT22;44854;50.838;4.438;2023-07-22T13:39:13;23.40;94.90
59067;DHT22;44854;50.838;4.438;2023-07-22T13:41:39;23.40;95.30
59067;DHT22;44854;50.838;4.438;2023-07-22T13:44:04;23.60;94.70
59067;DHT22;44854;50.838;4.438;2023-07-22T13:46:30;23.70;94.60
59067;DHT22;44854;50.838;4.438;2023-07-22T13:48:56;23.80;94.90
59067;DHT22;44854;50.838;4.438;2023-07-22T13:51:21;23.40;94.60
59067;DHT22;44854;50.838;4.438;2023-07-22T13:53:47;23.00;95.10
59067;DHT22;44854;50.838;4.438;2023-07-22T13:56:12;23.20;95.10
59067;DHT22;44854;50.838;4.438;2023-07-22T13:58:38;23.00;95.40
59067;DHT22;44854;50.838;4.438;2023-07-22T14:01:03;22.70;96.10
59067;DHT22;44854;50.838;4.438;2023-07-22T14:03:29;22.70;96.60
59067;DHT22;44854;50.838;4.438;2023-07-22T14:05:54;22.60;96.60
59067;DHT22;44854;50.838;4.438;2023-07-22T14:08:20;22.50;96.90
59067;DHT22;44854;50.838;4.438;2023-07-22T14:10:46;22.20;96.70
59067;DHT22;44854;50.838;4.438;2023-07-22T14:13:11;22.10;97.00
59067;DHT22;44854;50.838;4.438;2023-07-22T14:15:38;22.20;97.50
59067;DHT22;44854;50.838;4.438;2023-07-22T14:18:04;22.10;97.20
59067;DHT22;44854;50.838;4.438;2023-07-22T14:20:29;22.00;97.30
59067;DHT22;44854;50.838;4.438;2023-07-22T14:22:56;21.80;97.90
59067;DHT22;44854;50.838;4.438;2023-07-22T14:25:21;21.60;97.90
59067;DHT22;44854;50.838;4.438;2023-07-22T14:27:47;21.60;98.20
59067;DHT22;44854;50.838;4.438;2023-07-22T14:30:12;21.40;98.20
59067;DHT22;44854;50.838;4.438;2023-07-22T14:32:38;21.30;98.40
59067;DHT22;44854;50.838;4.438;2023-07-22T14:35:04;21.50;98.80
59067;DHT22;44854;50.838;4.438;2023-07-22T14:37:29;21.50;98.80
59067;DHT22;44854;50.838;4.438;2023-07-22T14:39:55;21.70;98.90
59067;DHT22;44854;50.838;4.438;2023-07-22T14:42:21;21.90;98.70
59067;DHT22;44854;50.838;4.438;2023-07-22T14:44:47;22.10;98.30
59067;DHT22;44854;50.838;4.438;2023-07-22T14:47:13;22.30;98.20
59067;DHT22;44854;50.838;4.438;2023-07-22T14:49:38;22.50;98.30
59067;DHT22;44854;50.838;4.438;2023-07-22T14:52:04;22.60;98.20
59067;DHT22;44854;50.838;4.438;2023-07-22T14:54:30;22.70;98.10
59067;DHT22;44854;50.838;4.438;2023-07-22T14:56:55;22.90;98.30
59067;DHT22;44854;50.838;4.438;2023-07-22T14:59:21;22.90;97.80
59067;DHT22;44854;50.838;4.438;2023-07-22T15:01:46;22.80;98.40
59067;DHT22;44854;50.838;4.438;2023-07-22T15:04:12;22.90;98.20
59067;DHT22;44854;50.838;4.438;2023-07-22T15:06:38;23.00;98.30
59067;DHT22;44854;50.838;4.438;2023-07-22T15:09:03;22.80;98.60
59067;DHT22;44854;50.838;4.438;2023-07-22T15:11:35;22.80;98.20
59067;DHT22;44854;50.838;4.438;2023-07-22T15:14:01;22.80;98.30
59067;DHT22;44854;50.838;4.438;2023-07-22T15:16:27;22.90;98.30
59067;DHT22;44854;50.838;4.438;2023-07-22T15:18:53;23.10;98.30
59067;DHT22;44854;50.838;4.438;2023-07-22T15:21:18;23.20;98.30
59067;DHT22;44854;50.838;4.438;2023-07-22T15:23:44;23.10;97.80
59067;DHT22;44854;50.838;4.438;2023-07-22T15:26:09;23.10;97.80
59067;DHT22;44854;50.838;4.438;2023-07-22T15:28:35;22.90;98.00
59067;DHT22;44854;50.838;4.438;2023-07-22T15:31:00;22.60;98.20
59067;DHT22;44854;50.838;4.438;2023-07-22T15:33:26;22.50;98.60
59067;DHT22;44854;50.838;4.438;2023-07-22T15:35:52;22.50;98.80
59067;DHT22;44854;50.838;4.438;2023-07-22T15:38:17;22.50;98.80
59067;DHT22;44854;50.838;4.438;2023-07-22T15:40:43;22.60;98.80
59067;DHT22;44854;50.838;4.438;2023-07-22T15:43:08;22.60;98.20
59067;DHT22;44854;50.838;4.438;2023-07-22T15:45:34;22.40;98.70
59067;DHT22;44854;50.838;4.438;2023-07-22T15:47:59;22.40;98.70
59067;DHT22;44854;50.838;4.438;2023-07-22T15:50:26;22.30;98.50
59067;DHT22;44854;50.838;4.438;2023-07-22T15:52:52;22.30;98.60
59067;DHT22;44854;50.838;4.438;2023-07-22T15:55:18;22.30;98.90
59067;DHT22;44854;50.838;4.438;2023-07-22T15:57:47;22.50;98.50
59067;DHT22;44854;50.838;4.438;2023-07-22T16:00:13;22.60;98.80
59067;DHT22;44854;50.838;4.438;2023-07-22T16:02:38;22.80;98.50
59067;DHT22;44854;50.838;4.438;2023-07-22T16:05:04;22.70;97.90
59067;DHT22;44854;50.838;4.438;2023-07-22T16:07:31;22.80;97.80
59067;DHT22;44854;50.838;4.438;2023-07-22T16:09:56;22.70;97.90
59067;DHT22;44854;50.838;4.438;2023-07-22T16:12:22;22.70;97.90
59067;DHT22;44854;50.838;4.438;2023-07-22T16:14:47;22.90;98.20
59067;DHT22;44854;50.838;4.438;2023-07-22T16:17:13;22.90;98.00
59067;DHT22;44854;50.838;4.438;2023-07-22T16:19:38;22.90;97.70
59067;DHT22;44854;50.838;4.438;2023-07-22T16:22:04;22.80;97.70
59067;DHT22;44854;50.838;4.438;2023-07-22T16:24:29;23.00;97.50
59067;DHT22;44854;50.838;4.438;2023-07-22T16:26:55;23.00;97.50
59067;DHT22;44854;50.838;4.438;2023-07-22T16:29:20;22.80;97.50
59067;DHT22;44854;50.838;4.438;2023-07-22T16:31:46;22.60;97.70
59067;DHT22;44854;50.838;4.438;2023-07-22T16:34:11;22.60;97.80
59067;DHT22;44854;50.838;4.438;2023-07-22T16:36:37;22.60;98.00
59067;DHT22;44854;50.838;4.438;2023-07-22T16:39:02;22.80;98.40
59067;DHT22;44854;50.838;4.438;2023-07-22T16:41:28;22.80;97.70
59067;DHT22;44854;50.838;4.438;2023-07-22T16:43:54;22.70;97.20
59067;DHT22;44854;50.838;4.438;2023-07-22T16:46:19;22.70;97.10
59067;DHT22;44854;50.838;4.438;2023-07-22T16:48:47;22.70;97.30
59067;DHT22;44854;50.838;4.438;2023-07-22T16:51:12;22.70;97.60
59067;DHT22;44854;50.838;4.438;2023-07-22T16:53:38;22.90;98.00
59067;DHT22;44854;50.838;4.438;2023-07-22T16:56:03;23.00;97.80
59067;DHT22;44854;50.838;4.438;2023-07-22T16:58:29;23.00;97.70
59067;DHT22;44854;50.838;4.438;2023-07-22T17:00:55;23.10;97.70
59067;DHT22;44854;50.838;4.438;2023-07-22T17:03:20;23.00;97.20
59067;DHT22;44854;50.838;4.438;2023-07-22T17:05:46;22.90;97.30
59067;DHT22;44854;50.838;4.438;2023-07-22T17:08:11;22.80;97.40
59067;DHT22;44854;50.838;4.438;2023-07-22T17:10:37;22.80;97.30
59067;DHT22;44854;50.838;4.438;2023-07-22T17:13:02;22.90;97.40
59067;DHT22;44854;50.838;4.438;2023-07-22T17:15:29;23.00;97.20
59067;DHT22;44854;50.838;4.438;2023-07-22T17:17:55;23.00;97.50
59067;DHT22;44854;50.838;4.438;2023-07-22T17:20:20;22.90;97.20
59067;DHT22;44854;50.838;4.438;2023-07-22T17:22:46;23.00;97.30
59067;DHT22;44854;50.838;4.438;2023-07-22T17:25:12;23.00;97.30
59067;DHT22;44854;50.838;4.438;2023-07-22T17:27:37;23.10;97.20
59067;DHT22;44854;50.838;4.438;2023-07-22T17:30:03;23.00;97.30
59067;DHT22;44854;50.838;4.438;2023-07-22T17:32:28;23.00;97.50
59067;DHT22;44854;50.838;4.438;2023-07-22T17:34:54;23.00;97.30
59067;DHT22;44854;50.838;4.438;2023-07-22T17:37:21;23.00;97.30
59067;DHT22;44854;50.838;4.438;2023-07-22T17:39:47;22.90;97.40
59067;DHT22;44854;50.838;4.438;2023-07-22T17:42:12;22.80;97.60
59067;DHT22;44854;50.838;4.438;2023-07-22T17:44:38;22.80;97.60
59067;DHT22;44854;50.838;4.438;2023-07-22T17:47:03;22.80;97.90
59067;DHT22;44854;50.838;4.438;2023-07-22T17:49:29;22.80;97.60
59067;DHT22;44854;50.838;4.438;2023-07-22T17:51:54;22.80;97.80
59067;DHT22;44854;50.838;4.438;2023-07-22T17:54:20;22.80;98.10
59067;DHT22;44854;50.838;4.438;2023-07-22T17:56:45;22.70;97.90
59067;DHT22;44854;50.838;4.438;2023-07-22T17:59:11;22.60;98.50
59067;DHT22;44854;50.838;4.438;2023-07-22T18:01:37;22.60;98.20
59067;DHT22;44854;50.838;4.438;2023-07-22T18:04:02;22.70;98.50
59067;DHT22;44854;50.838;4.438;2023-07-22T18:06:28;22.80;98.40
59067;DHT22;44854;50.838;4.438;2023-07-22T18:08:53;22.80;98.10
59067;DHT22;44854;50.838;4.438;2023-07-22T18:11:19;22.90;97.90
59067;DHT22;44854;50.838;4.438;2023-07-22T18:13:44;22.80;97.80
59067;DHT22;44854;50.838;4.438;2023-07-22T18:16:10;22.80;97.80
59067;DHT22;44854;50.838;4.438;2023-07-22T18:18:36;22.80;97.90
59067;DHT22;44854;50.838;4.438;2023-07-22T18:21:01;22.90;97.90
59067;DHT22;44854;50.838;4.438;2023-07-22T18:23:27;23.00;97.90
59067;DHT22;44854;50.838;4.438;2023-07-22T18:25:53;23.00;97.70
59067;DHT22;44854;50.838;4.438;2023-07-22T18:28:18;22.90;98.00
59067;DHT22;44854;50.838;4.438;2023-07-22T18:30:44;22.70;98.20
59067;DHT22;44854;50.838;4.438;2023-07-22T18:33:09;22.70;98.30
59067;DHT22;44854;50.838;4.438;2023-07-22T18:35:35;22.70;98.40
59067;DHT22;44854;50.838;4.438;2023-07-22T18:38:01;22.80;98.20
59067;DHT22;44854;50.838;4.438;2023-07-22T18:40:26;22.70;98.40
59067;DHT22;44854;50.838;4.438;2023-07-22T18:42:52;22.70;98.70
59067;DHT22;44854;50.838;4.438;2023-07-22T18:45:18;22.70;98.70
59067;DHT22;44854;50.838;4.438;2023-07-22T18:47:43;22.60;98.70
59067;DHT22;44854;50.838;4.438;2023-07-22T18:50:09;22.50;98.80
59067;DHT22;44854;50.838;4.438;2023-07-22T18:52:34;22.50;99.20
59067;DHT22;44854;50.838;4.438;2023-07-22T18:55:00;22.50;99.00
59067;DHT22;44854;50.838;4.438;2023-07-22T18:57:25;22.50;99.40
59067;DHT22;44854;50.838;4.438;2023-07-22T18:59:51;22.60;99.30
59067;DHT22;44854;50.838;4.438;2023-07-22T19:02:16;22.50;99.40
59067;DHT22;44854;50.838;4.438;2023-07-22T19:04:42;22.40;99.40
59067;DHT22;44854;50.838;4.438;2023-07-22T19:07:07;22.30;99.60
59067;DHT22;44854;50.838;4.438;2023-07-22T19:09:33;22.30;99.80
59067;DHT22;44854;50.838;4.438;2023-07-22T19:11:59;22.30;99.90
59067;DHT22;44854;50.838;4.438;2023-07-22T19:14:24;22.30;99.90
59067;DHT22;44854;50.838;4.438;2023-07-22T19:16:53;22.30;99.90
59067;DHT22;44854;50.838;4.438;2023-07-22T19:19:19;22.30;99.90
59067;DHT22;44854;50.838;4.438;2023-07-22T19:21:45;22.30;99.90
59067;DHT22;44854;50.838;4.438;2023-07-22T19:24:10;22.20;99.90
59067;DHT22;44854;50.838;4.438;2023-07-22T19:26:36;22.20;99.90